Time;durP1;ratioP1;P1;durP2;ratioP2;P2;SDS_P1;SDS_P2;PMS_P1;PMS_P2;Temp;Humidity;BMP_temperature;BMP_pressure;BME280_temperature;BME280_humidity;BME280_pressure;Samples;Min_cycle;Max_cycle;Signal;HPM_P1;HPM_P2
2022/11/16 00:01:22;;;;;;;282.23;75.73;;;;;;;;;;4991285;28;20966;-54
2022/11/16 00:03:48;;;;;;;233.27;68.10;;;;;;;;;;4992841;28;20299;-53
2022/11/16 00:06:14;;;;;;;244.07;75.27;;;;;;;;;;4990253;28;20196;-53
2022/11/16 00:08:42;;;;;;;222.30;65.33;;;;;;;;;;4996192;28;20220;-53
2022/11/16 00:11:08;;;;;;;265.33;70.77;;;;;;;;;;4998166;28;20223;-54
2022/11/16 00:13:34;;;;;;;144.83;57.20;;;;;;;;;;4993921;28;20220;-52
2022/11/16 00:16:00;;;;;;;349.03;94.90;;;;;;;;;;4992704;28;20233;-52
2022/11/16 00:18:26;;;;;;;138.30;52.60;;;;;;;;;;4992584;28;20185;-53
2022/11/16 00:20:52;;;;;;;309.23;96.07;;;;;;;;;;4986741;28;20271;-52
2022/11/16 00:23:18;;;;;;;149.27;53.60;;;;;;;;;;4994908;28;20711;-52
2022/11/16 00:25:44;;;;;;;157.10;62.33;;;;;;;;;;4987751;28;20215;-52
2022/11/16 00:28:10;;;;;;;212.03;64.50;;;;;;;;;;4991839;28;20303;-53
2022/11/16 00:30:36;;;;;;;135.47;54.50;;;;;;;;;;4986434;28;20224;-53
2022/11/16 00:33:03;;;;;;;342.67;88.47;;;;;;;;;;4992960;28;20357;-53
2022/11/16 00:35:29;;;;;;;170.60;60.23;;;;;;;;;;4991658;28;20548;-53
2022/11/16 00:37:55;;;;;;;327.47;86.20;;;;;;;;;;4996273;28;20213;-53
2022/11/16 00:40:21;;;;;;;234.60;73.27;;;;;;;;;;4988680;28;20213;-53
2022/11/16 00:42:47;;;;;;;349.03;92.33;;;;;;;;;;5005084;28;20636;-52
2022/11/16 00:45:13;;;;;;;233.17;75.80;;;;;;;;;;4990605;28;20267;-53
2022/11/16 00:47:39;;;;;;;237.63;70.80;;;;;;;;;;4995005;28;20248;-53
2022/11/16 00:50:05;;;;;;;266.20;81.47;;;;;;;;;;4984580;28;20217;-52
2022/11/16 00:52:31;;;;;;;178.37;64.50;;;;;;;;;;4988273;28;20222;-53
2022/11/16 00:54:57;;;;;;;281.97;93.27;;;;;;;;;;4991550;28;20205;-52
2022/11/16 00:57:23;;;;;;;181.63;60.33;;;;;;;;;;4986239;28;20526;-52
2022/11/16 00:59:49;;;;;;;201.57;66.67;;;;;;;;;;4993321;28;20300;-52
2022/11/16 01:02:15;;;;;;;203.57;69.73;;;;;;;;;;4988152;28;20584;-52
2022/11/16 01:04:41;;;;;;;109.17;49.47;;;;;;;;;;4991096;28;20215;-53
2022/11/16 01:07:07;;;;;;;212.97;64.93;;;;;;;;;;4998819;28;20216;-53
2022/11/16 01:09:33;;;;;;;184.17;64.97;;;;;;;;;;4995238;28;20272;-53
2022/11/16 01:12:08;;;;;;;352.20;95.80;;;;;;;;;;4996657;28;20252;-53
2022/11/16 01:14:42;;;;;;;127.10;47.90;;;;;;;;;;5001291;28;20226;-53
2022/11/16 01:17:08;;;;;;;259.47;73.20;;;;;;;;;;4993047;28;20213;-52
2022/11/16 01:19:34;;;;;;;75.10;38.80;;;;;;;;;;4998884;28;20213;-52
2022/11/16 01:22:00;;;;;;;87.33;42.13;;;;;;;;;;5004459;28;20220;-53
2022/11/16 01:24:26;;;;;;;229.30;74.07;;;;;;;;;;4983879;28;20189;-53
2022/11/16 01:26:56;;;;;;;157.90;59.63;;;;;;;;;;4980417;28;20177;-53
2022/11/16 01:29:26;;;;;;;356.43;93.60;;;;;;;;;;4994600;28;20319;-53
2022/11/16 01:31:52;;;;;;;160.07;62.40;;;;;;;;;;4992747;28;20212;-53
2022/11/16 01:34:18;;;;;;;347.10;89.67;;;;;;;;;;4993760;28;20700;-54
2022/11/16 01:36:44;;;;;;;280.63;78.20;;;;;;;;;;4993896;28;20245;-52
2022/11/16 01:39:11;;;;;;;427.33;110.43;;;;;;;;;;4995525;28;20213;-53
2022/11/16 01:41:37;;;;;;;209.13;72.40;;;;;;;;;;4980869;28;20224;-52
2022/11/16 01:44:06;;;;;;;249.83;78.27;;;;;;;;;;4994381;28;20315;-53
2022/11/16 01:46:32;;;;;;;164.47;57.13;;;;;;;;;;4996868;28;20224;-52
2022/11/16 01:49:01;;;;;;;157.50;61.10;;;;;;;;;;4995206;28;20584;-52
2022/11/16 01:51:27;;;;;;;262.90;75.47;;;;;;;;;;4998055;28;20289;-53
2022/11/16 01:53:53;;;;;;;293.67;94.20;;;;;;;;;;4992418;28;20192;-53
2022/11/16 01:56:20;;;;;;;192.43;64.50;;;;;;;;;;4988765;28;20574;-52
2022/11/16 01:58:46;;;;;;;94.57;48.50;;;;;;;;;;4994589;28;20210;-53
2022/11/16 02:01:12;;;;;;;207.20;73.87;;;;;;;;;;4990267;28;20217;-53
2022/11/16 02:03:38;;;;;;;255.07;80.27;;;;;;;;;;4991280;28;20271;-53
2022/11/16 02:06:23;;;;;;;210.60;70.90;;;;;;;;;;4994356;28;20185;-53
2022/11/16 02:12:10;;;;;;;191.33;65.33;;;;;;;;;;4981063;28;20278;-53
2022/11/16 02:14:42;;;;;;;343.47;96.70;;;;;;;;;;4985599;28;20784;-53
2022/11/16 02:17:14;;;;;;;172.57;60.13;;;;;;;;;;4986825;28;20209;-53
2022/11/16 02:19:49;;;;;;;255.70;82.03;;;;;;;;;;4972230;28;20403;-53
2022/11/16 02:22:35;;;;;;;289.63;91.80;;;;;;;;;;4979525;28;20331;-52
2022/11/16 02:25:12;;;;;;;270.40;86.50;;;;;;;;;;4963060;28;20240;-53
2022/11/16 02:28:04;;;;;;;303.63;86.73;;;;;;;;;;4991805;28;20220;-52
2022/11/16 02:30:30;;;;;;;333.87;94.73;;;;;;;;;;4973389;28;20216;-53
2022/11/16 02:33:01;;;;;;;374.60;113.73;;;;;;;;;;4977113;28;20846;-52
2022/11/16 02:35:30;;;;;;;324.90;108.57;;;;;;;;;;4976794;28;20693;-53
2022/11/16 02:37:58;;;;;;;137.77;62.57;;;;;;;;;;4977457;28;20287;-53
2022/11/16 02:40:26;;;;;;;86.57;50.20;;;;;;;;;;4994106;28;20220;-53
2022/11/16 02:42:58;;;;;;;317.43;96.70;;;;;;;;;;4981057;28;21889;-53
2022/11/16 02:45:27;;;;;;;262.43;89.33;;;;;;;;;;4985625;28;20196;-53
2022/11/16 02:47:54;;;;;;;248.73;85.17;;;;;;;;;;4985892;28;20805;-53
2022/11/16 02:50:22;;;;;;;297.67;106.70;;;;;;;;;;4988874;28;20221;-53
2022/11/16 02:52:48;;;;;;;97.80;60.80;;;;;;;;;;4993477;28;20216;-53
2022/11/16 02:55:14;;;;;;;164.37;73.27;;;;;;;;;;4990624;28;20215;-53
2022/11/16 02:57:52;;;;;;;235.20;86.50;;;;;;;;;;4996210;28;20696;-53
2022/11/16 03:00:27;;;;;;;291.67;103.80;;;;;;;;;;4993171;28;20403;-54
2022/11/16 03:02:57;;;;;;;367.80;118.87;;;;;;;;;;4978021;28;20259;-53
2022/11/16 03:05:30;;;;;;;218.90;83.80;;;;;;;;;;4987889;28;20213;-53
2022/11/16 03:08:17;;;;;;;264.07;97.00;;;;;;;;;;4989032;28;20247;-52
2022/11/16 03:13:30;;;;;;;218.93;92.73;;;;;;;;;;4988987;28;20239;-53
2022/11/16 03:15:57;;;;;;;135.93;75.17;;;;;;;;;;4987403;28;20782;-53
2022/11/16 03:18:25;;;;;;;237.47;92.53;;;;;;;;;;4993732;28;20600;-53
2022/11/16 03:20:53;;;;;;;245.03;92.30;;;;;;;;;;4985677;28;20367;-52
2022/11/16 03:23:19;;;;;;;327.63;115.60;;;;;;;;;;4989050;28;20990;-53
2022/11/16 03:25:51;;;;;;;384.37;138.10;;;;;;;;;;4982794;28;20221;-53
2022/11/16 03:28:33;;;;;;;150.30;82.07;;;;;;;;;;4988658;28;20217;-53
2022/11/16 03:31:09;;;;;;;280.40;110.63;;;;;;;;;;4980475;28;20209;-53
2022/11/16 03:33:38;;;;;;;209.37;94.10;;;;;;;;;;4974820;28;20267;-53
2022/11/16 03:36:33;;;;;;;233.93;99.80;;;;;;;;;;4990780;28;20223;-53
2022/11/16 03:39:01;;;;;;;395.93;133.37;;;;;;;;;;4965421;28;20228;-53
2022/11/16 03:41:28;;;;;;;276.10;111.80;;;;;;;;;;4971483;28;20225;-53
2022/11/16 03:43:54;;;;;;;380.73;138.07;;;;;;;;;;4980911;28;20217;-53
2022/11/16 03:46:20;;;;;;;319.77;118.17;;;;;;;;;;4961825;28;20554;-53
2022/11/16 03:48:46;;;;;;;184.33;95.40;;;;;;;;;;4985910;28;20220;-53
2022/11/16 03:51:13;;;;;;;271.93;111.67;;;;;;;;;;4976835;28;20248;-53
2022/11/16 03:53:39;;;;;;;226.63;97.77;;;;;;;;;;4985074;28;20224;-53
2022/11/16 03:56:05;;;;;;;325.93;136.00;;;;;;;;;;4972999;28;20214;-53
2022/11/16 03:58:31;;;;;;;326.13;126.43;;;;;;;;;;4975398;28;21097;-53
2022/11/16 04:00:57;;;;;;;344.23;138.20;;;;;;;;;;4984567;28;21374;-53
2022/11/16 04:03:23;;;;;;;314.10;125.37;;;;;;;;;;4980502;28;20186;-52
2022/11/16 04:25:12;;;;;;;359.97;125.73;;;;;;;;;;4997063;28;20418;-55
2022/11/16 04:30:22;;;;;;;158.33;87.47;;;;;;;;;;4983807;28;20348;-53
2022/11/16 04:38:18;;;;;;;347.30;141.13;;;;;;;;;;4982584;28;20760;-52
2022/11/16 04:40:44;;;;;;;337.60;128.33;;;;;;;;;;4987537;28;20225;-53
2022/11/16 04:43:10;;;;;;;229.00;106.60;;;;;;;;;;4983101;28;20220;-53
2022/11/16 04:48:21;;;;;;;208.87;105.20;;;;;;;;;;4987580;28;20335;-53
2022/11/16 04:50:47;;;;;;;233.47;104.77;;;;;;;;;;4972397;28;20212;-53
2022/11/16 04:53:13;;;;;;;204.50;100.53;;;;;;;;;;4986439;28;20217;-53
2022/11/16 04:55:39;;;;;;;386.53;132.73;;;;;;;;;;4995314;28;21240;-53
2022/11/16 04:58:05;;;;;;;136.03;83.73;;;;;;;;;;4997945;28;20247;-53
2022/11/16 05:00:31;;;;;;;447.00;160.73;;;;;;;;;;4992017;28;20181;-53
2022/11/16 05:02:57;;;;;;;345.57;139.87;;;;;;;;;;4981363;28;20213;-53
2022/11/16 05:05:23;;;;;;;384.43;154.27;;;;;;;;;;4988586;28;20370;-53
2022/11/16 05:07:50;;;;;;;257.37;120.27;;;;;;;;;;4977065;28;20238;-53
2022/11/16 05:10:16;;;;;;;323.17;135.37;;;;;;;;;;4985655;28;20266;-52
2022/11/16 05:12:42;;;;;;;302.80;121.67;;;;;;;;;;4987572;28;20227;-55
2022/11/16 05:15:08;;;;;;;236.67;108.60;;;;;;;;;;4988930;28;21787;-52
2022/11/16 05:17:34;;;;;;;351.83;143.93;;;;;;;;;;4978494;28;20708;-53
2022/11/16 05:22:51;;;;;;;283.77;129.47;;;;;;;;;;4992979;28;20691;-52
2022/11/16 05:25:17;;;;;;;329.43;131.40;;;;;;;;;;4983481;28;20217;-52
2022/11/16 05:27:43;;;;;;;457.17;174.07;;;;;;;;;;4978785;28;20538;-53
2022/11/16 05:30:10;;;;;;;279.77;128.03;;;;;;;;;;4997814;28;20205;-53
2022/11/16 05:32:36;;;;;;;306.03;143.03;;;;;;;;;;4992159;28;20231;-53
2022/11/16 05:35:02;;;;;;;305.07;135.43;;;;;;;;;;4984319;28;20326;-54
2022/11/16 05:37:29;;;;;;;308.67;142.10;;;;;;;;;;4980435;28;20213;-52
2022/11/16 05:39:55;;;;;;;273.83;127.07;;;;;;;;;;4979711;28;20303;-53
2022/11/16 05:42:22;;;;;;;344.87;129.17;;;;;;;;;;4972746;28;20228;-53
2022/11/16 05:44:47;;;;;;;260.90;114.73;;;;;;;;;;4970572;28;20193;-52
2022/11/16 05:47:13;;;;;;;289.97;123.10;;;;;;;;;;4986317;28;20239;-53
2022/11/16 05:49:39;;;;;;;313.77;128.03;;;;;;;;;;4983192;28;20416;-53
2022/11/16 05:52:05;;;;;;;358.63;147.70;;;;;;;;;;4979204;28;20222;-53
2022/11/16 05:54:31;;;;;;;354.07;141.37;;;;;;;;;;4984125;28;20185;-53
2022/11/16 05:56:57;;;;;;;333.97;139.03;;;;;;;;;;4980709;28;20192;-53
2022/11/16 05:59:23;;;;;;;336.67;140.33;;;;;;;;;;4989605;28;20208;-53
2022/11/16 06:01:50;;;;;;;454.17;188.27;;;;;;;;;;4979537;28;20350;-53
2022/11/16 06:04:16;;;;;;;404.23;156.97;;;;;;;;;;4987711;28;20224;-53
2022/11/16 06:06:42;;;;;;;281.30;121.27;;;;;;;;;;4968417;28;20209;-53
2022/11/16 06:09:10;;;;;;;353.23;153.13;;;;;;;;;;4984827;28;20228;-52
2022/11/16 06:11:37;;;;;;;320.83;141.43;;;;;;;;;;4986680;28;20318;-53
2022/11/16 06:14:03;;;;;;;401.67;159.13;;;;;;;;;;4980946;28;20220;-53
2022/11/16 06:16:28;;;;;;;351.53;147.37;;;;;;;;;;4978053;28;20220;-53
2022/11/16 06:18:54;;;;;;;373.60;156.37;;;;;;;;;;4985784;28;21490;-53
2022/11/16 06:21:20;;;;;;;346.07;153.10;;;;;;;;;;4974051;28;20236;-53
2022/11/16 06:23:46;;;;;;;482.07;193.20;;;;;;;;;;4961072;28;20201;-52
2022/11/16 06:26:13;;;;;;;323.43;101.47;;;;;;;;;;4934921;28;20307;-53
2022/11/16 06:28:39;;;;;;;269.03;75.80;;;;;;;;;;4975672;28;20228;-53
2022/11/16 06:31:05;;;;;;;281.30;89.13;;;;;;;;;;4980444;28;20964;-53
2022/11/16 06:33:31;;;;;;;304.57;91.67;;;;;;;;;;4949041;28;21908;-53
2022/11/16 06:35:57;;;;;;;192.63;60.60;;;;;;;;;;4967709;28;20200;-53
2022/11/16 06:38:23;;;;;;;182.00;70.63;;;;;;;;;;4975172;28;21800;-53
2022/11/16 06:40:50;;;;;;;219.63;93.90;;;;;;;;;;4972134;28;20299;-53
2022/11/16 06:43:16;;;;;;;175.03;50.60;;;;;;;;;;4978580;28;20645;-53
2022/11/16 06:45:43;;;;;;;706.37;250.10;;;;;;;;;;4969650;28;20236;-54
2022/11/16 06:48:09;;;;;;;303.83;80.50;;;;;;;;;;4970693;28;20647;-54
2022/11/16 06:50:35;;;;;;;304.80;83.93;;;;;;;;;;4966839;28;21629;-53
2022/11/16 06:53:01;;;;;;;225.13;59.40;;;;;;;;;;4982756;28;20220;-52
2022/11/16 06:55:27;;;;;;;384.27;101.27;;;;;;;;;;4984159;28;20798;-53
2022/11/16 06:57:53;;;;;;;392.27;96.73;;;;;;;;;;4994559;28;20691;-53
2022/11/16 07:00:19;;;;;;;256.03;72.97;;;;;;;;;;4986259;28;20192;-53
2022/11/16 07:02:45;;;;;;;211.23;56.03;;;;;;;;;;4975261;28;20300;-53
2022/11/16 07:05:11;;;;;;;269.93;73.90;;;;;;;;;;4982277;28;20490;-53
2022/11/16 07:07:37;;;;;;;244.73;61.93;;;;;;;;;;4953569;28;20244;-53
2022/11/16 07:10:04;;;;;;;211.30;56.30;;;;;;;;;;4986130;28;20271;-53
2022/11/16 07:12:30;;;;;;;270.97;73.97;;;;;;;;;;4984790;28;20213;-54
2022/11/16 07:14:56;;;;;;;310.97;73.60;;;;;;;;;;4962856;28;20344;-52
2022/11/16 07:17:22;;;;;;;270.87;63.20;;;;;;;;;;4976601;28;20244;-56
2022/11/16 07:19:48;;;;;;;179.23;49.83;;;;;;;;;;4965228;28;20292;-56
2022/11/16 07:22:14;;;;;;;230.97;64.57;;;;;;;;;;4987558;28;20707;-56
2022/11/16 07:24:43;;;;;;;311.87;86.87;;;;;;;;;;4963727;28;20224;-52
2022/11/16 07:27:09;;;;;;;222.87;57.90;;;;;;;;;;4965570;28;20181;-53
2022/11/16 07:29:35;;;;;;;293.37;77.40;;;;;;;;;;4980949;28;20223;-54
2022/11/16 07:32:01;;;;;;;202.97;59.70;;;;;;;;;;4973713;28;20747;-53
2022/11/16 07:34:27;;;;;;;135.90;40.47;;;;;;;;;;4984227;28;20216;-54
2022/11/16 07:36:53;;;;;;;213.07;57.73;;;;;;;;;;4986854;28;20259;-53
2022/11/16 07:39:20;;;;;;;298.37;80.67;;;;;;;;;;4987005;28;20267;-53
2022/11/16 07:41:49;;;;;;;311.80;79.57;;;;;;;;;;4982648;28;20232;-53
2022/11/16 07:44:15;;;;;;;194.57;49.90;;;;;;;;;;4988144;28;20216;-53
2022/11/16 07:46:41;;;;;;;283.90;71.60;;;;;;;;;;4992946;28;20671;-53
2022/11/16 07:49:07;;;;;;;231.97;65.27;;;;;;;;;;4992218;28;20787;-53
2022/11/16 07:51:33;;;;;;;298.57;72.73;;;;;;;;;;4994072;28;20205;-54
2022/11/16 07:53:59;;;;;;;277.37;63.30;;;;;;;;;;5003082;28;20189;-53
2022/11/16 07:56:25;;;;;;;166.90;41.13;;;;;;;;;;4985127;28;20474;-53
2022/11/16 07:58:51;;;;;;;192.67;49.43;;;;;;;;;;5002917;28;20291;-54
2022/11/16 08:01:18;;;;;;;220.03;54.70;;;;;;;;;;4997130;28;20305;-53
2022/11/16 08:03:44;;;;;;;262.03;60.53;;;;;;;;;;4986721;28;20213;-53
2022/11/16 08:06:12;;;;;;;228.70;62.67;;;;;;;;;;4994129;28;20226;-53
2022/11/16 08:08:41;;;;;;;324.33;84.63;;;;;;;;;;4991664;28;20240;-53
2022/11/16 08:11:09;;;;;;;132.50;38.17;;;;;;;;;;4978929;28;21602;-54
2022/11/16 08:13:36;;;;;;;214.93;56.33;;;;;;;;;;4992230;28;20636;-53
2022/11/16 08:16:11;;;;;;;147.10;40.40;;;;;;;;;;4996631;28;20327;-53
2022/11/16 08:18:38;;;;;;;277.97;75.13;;;;;;;;;;4995943;28;20315;-53
2022/11/16 08:21:05;;;;;;;247.63;61.17;;;;;;;;;;4988871;28;21005;-53
2022/11/16 08:23:31;;;;;;;401.63;101.30;;;;;;;;;;4978012;28;20205;-53
2022/11/16 08:25:58;;;;;;;257.07;67.70;;;;;;;;;;4957715;28;20243;-54
2022/11/16 08:28:26;;;;;;;171.20;45.57;;;;;;;;;;4974580;28;20219;-53
2022/11/16 08:30:52;;;;;;;266.07;70.17;;;;;;;;;;4972421;28;20307;-53
2022/11/16 08:33:20;;;;;;;256.37;69.13;;;;;;;;;;4973114;28;20240;-53
2022/11/16 08:35:47;;;;;;;270.67;72.53;;;;;;;;;;4969258;28;20562;-53
2022/11/16 08:38:13;;;;;;;303.10;81.17;;;;;;;;;;4966982;28;20331;-53
2022/11/16 08:40:39;;;;;;;399.97;110.40;;;;;;;;;;4976554;28;20223;-54
2022/11/16 08:43:05;;;;;;;148.90;40.63;;;;;;;;;;4974485;28;20421;-54
2022/11/16 08:45:32;;;;;;;275.97;75.70;;;;;;;;;;4952159;28;20769;-54
2022/11/16 08:47:58;;;;;;;377.63;101.50;;;;;;;;;;4966477;28;20764;-54
2022/11/16 08:50:24;;;;;;;295.07;73.17;;;;;;;;;;4956444;28;20232;-54
2022/11/16 08:52:50;;;;;;;170.50;43.87;;;;;;;;;;4975852;28;20224;-54
2022/11/16 08:55:17;;;;;;;287.17;75.23;;;;;;;;;;4965194;28;20209;-53
2022/11/16 08:57:44;;;;;;;362.27;95.60;;;;;;;;;;4971584;28;20224;-54
2022/11/16 09:00:11;;;;;;;113.90;30.07;;;;;;;;;;4975220;28;20510;-54
2022/11/16 09:02:37;;;;;;;292.97;76.57;;;;;;;;;;4969308;28;20321;-54
2022/11/16 09:05:04;;;;;;;349.67;93.23;;;;;;;;;;4970040;28;20213;-53
2022/11/16 09:07:30;;;;;;;137.10;35.87;;;;;;;;;;4984414;28;20243;-54
2022/11/16 09:09:55;;;;;;;246.13;65.13;;;;;;;;;;4982638;28;20702;-54
2022/11/16 09:12:22;;;;;;;164.77;47.27;;;;;;;;;;4995944;28;20230;-54
2022/11/16 09:14:47;;;;;;;329.60;79.33;;;;;;;;;;4993770;28;20217;-53
2022/11/16 09:17:13;;;;;;;174.40;43.77;;;;;;;;;;4991186;28;20750;-53
2022/11/16 09:19:39;;;;;;;395.60;103.13;;;;;;;;;;4990099;28;20208;-53
2022/11/16 09:22:05;;;;;;;202.03;48.73;;;;;;;;;;4990286;28;20308;-53
2022/11/16 09:24:33;;;;;;;213.73;50.17;;;;;;;;;;4994298;28;20247;-54
2022/11/16 09:27:00;;;;;;;191.33;46.60;;;;;;;;;;4991140;28;20239;-53
2022/11/16 09:29:29;;;;;;;336.97;82.43;;;;;;;;;;4975763;28;20220;-53
2022/11/16 09:31:57;;;;;;;304.10;76.70;;;;;;;;;;4982879;28;20680;-54
2022/11/16 09:34:23;;;;;;;250.60;66.43;;;;;;;;;;4979599;28;20397;-53
2022/11/16 09:36:49;;;;;;;403.97;97.43;;;;;;;;;;4975413;28;20584;-52
2022/11/16 09:39:15;;;;;;;248.93;63.93;;;;;;;;;;4985633;28;20200;-53
2022/11/16 09:42:00;;;;;;;291.00;72.37;;;;;;;;;;4995898;28;20209;-53
2022/11/16 09:44:32;;;;;;;250.77;58.57;;;;;;;;;;4990735;28;20305;-54
2022/11/16 09:46:59;;;;;;;313.83;75.83;;;;;;;;;;4982059;28;20220;-54
2022/11/16 09:49:30;;;;;;;123.10;30.90;;;;;;;;;;4991895;28;20248;-54
2022/11/16 09:52:01;;;;;;;196.37;44.13;;;;;;;;;;4992610;28;20244;-53
2022/11/16 09:54:30;;;;;;;177.77;40.70;;;;;;;;;;4987972;28;20233;-53
2022/11/16 09:56:58;;;;;;;232.43;51.23;;;;;;;;;;5006748;28;20243;-53
2022/11/16 09:59:25;;;;;;;180.70;40.80;;;;;;;;;;4988000;28;20228;-53
2022/11/16 10:01:57;;;;;;;188.23;44.73;;;;;;;;;;5006069;28;20252;-54
2022/11/16 10:04:23;;;;;;;189.93;43.07;;;;;;;;;;5006221;28;20216;-53
2022/11/16 10:06:56;;;;;;;174.63;40.33;;;;;;;;;;5006827;28;20223;-53
2022/11/16 10:09:22;;;;;;;188.57;42.67;;;;;;;;;;5006837;28;20703;-53
2022/11/16 10:11:55;;;;;;;227.13;51.73;;;;;;;;;;4988071;28;20271;-53
2022/11/16 10:14:24;;;;;;;260.80;63.17;;;;;;;;;;5003460;28;20437;-53
2022/11/16 10:16:56;;;;;;;173.00;37.60;;;;;;;;;;5005909;28;20220;-53
2022/11/16 10:19:22;;;;;;;235.03;54.43;;;;;;;;;;5006305;28;20216;-53
2022/11/16 10:21:47;;;;;;;188.53;42.87;;;;;;;;;;5005987;28;20223;-54
2022/11/16 10:24:23;;;;;;;186.07;41.97;;;;;;;;;;5006375;28;20169;-53
2022/11/16 10:27:04;;;;;;;75.43;19.77;;;;;;;;;;4989565;28;20172;-53
2022/11/16 10:29:36;;;;;;;165.87;40.20;;;;;;;;;;5005717;28;20220;-53
2022/11/16 10:32:11;;;;;;;245.40;54.93;;;;;;;;;;5005284;28;20220;-53
2022/11/16 10:34:42;;;;;;;245.13;58.47;;;;;;;;;;5005518;28;20714;-53
2022/11/16 10:37:10;;;;;;;272.47;61.40;;;;;;;;;;5005583;28;20279;-53
2022/11/16 10:39:39;;;;;;;188.40;41.73;;;;;;;;;;5005851;28;20343;-53
2022/11/16 10:42:10;;;;;;;51.57;15.43;;;;;;;;;;5007304;28;20189;-53
2022/11/16 10:44:40;;;;;;;81.80;22.50;;;;;;;;;;5006537;28;20219;-53
2022/11/16 10:47:09;;;;;;;180.33;40.73;;;;;;;;;;5006810;28;20441;-53
2022/11/16 10:49:49;;;;;;;142.23;33.83;;;;;;;;;;4987825;28;20216;-53
2022/11/16 10:52:15;;;;;;;204.23;46.93;;;;;;;;;;5005533;28;20220;-53
2022/11/16 10:54:41;;;;;;;129.60;30.63;;;;;;;;;;5005698;28;20222;-53
2022/11/16 10:57:13;;;;;;;161.23;37.37;;;;;;;;;;5006704;28;20180;-54
2022/11/16 10:59:39;;;;;;;280.83;60.80;;;;;;;;;;5006113;28;20223;-54
2022/11/16 11:02:30;;;;;;;271.27;63.27;;;;;;;;;;5006131;28;20220;-53
2022/11/16 11:05:15;;;;;;;65.03;19.07;;;;;;;;;;5002132;28;20588;-53
2022/11/16 11:07:43;;;;;;;169.93;38.67;;;;;;;;;;5005431;28;20231;-53
2022/11/16 11:10:27;;;;;;;162.80;40.83;;;;;;;;;;5009459;28;20216;-54
2022/11/16 11:13:13;;;;;;;273.00;61.23;;;;;;;;;;5009558;28;20305;-54
2022/11/16 11:15:41;;;;;;;173.73;36.57;;;;;;;;;;4996634;28;21093;-54
2022/11/16 11:18:22;;;;;;;215.60;44.73;;;;;;;;;;5007903;28;20265;-54
2022/11/16 11:20:50;;;;;;;246.83;52.70;;;;;;;;;;5008368;28;20208;-54
2022/11/16 11:23:20;;;;;;;34.07;12.87;;;;;;;;;;5024177;28;20259;-54
2022/11/16 11:25:51;;;;;;;194.83;43.33;;;;;;;;;;5007301;28;20700;-54
2022/11/16 11:28:20;;;;;;;332.27;63.03;;;;;;;;;;5007840;28;20862;-54
2022/11/16 11:30:57;;;;;;;126.37;28.07;;;;;;;;;;5010251;28;20267;-54
2022/11/16 11:33:24;;;;;;;282.20;53.20;;;;;;;;;;5006445;28;20181;-54
2022/11/16 11:36:07;;;;;;;71.87;20.80;;;;;;;;;;5007912;28;20656;-54
2022/11/16 11:38:34;;;;;;;50.27;16.00;;;;;;;;;;5008284;28;20216;-54
2022/11/16 11:41:04;;;;;;;58.73;18.10;;;;;;;;;;5009153;28;20239;-54
2022/11/16 11:43:32;;;;;;;293.53;60.03;;;;;;;;;;5009101;28;20267;-54
2022/11/16 11:46:20;;;;;;;182.03;39.03;;;;;;;;;;5006349;28;20216;-53
2022/11/16 11:48:51;;;;;;;298.73;58.47;;;;;;;;;;5006949;28;20236;-53
2022/11/16 11:51:20;;;;;;;157.80;33.70;;;;;;;;;;5008008;28;20197;-53
2022/11/16 11:53:53;;;;;;;309.50;60.17;;;;;;;;;;5008728;28;20203;-54
2022/11/16 11:56:19;;;;;;;165.90;35.07;;;;;;;;;;5004199;28;20234;-54
2022/11/16 11:58:46;;;;;;;197.17;38.40;;;;;;;;;;5023063;28;20219;-54
2022/11/16 12:01:31;;;;;;;61.33;18.73;;;;;;;;;;5006585;28;20209;-54
2022/11/16 12:04:12;;;;;;;319.57;68.83;;;;;;;;;;5005830;28;20300;-54
2022/11/16 12:06:41;;;;;;;120.00;28.83;;;;;;;;;;5007475;28;20233;-54
2022/11/16 12:09:10;;;;;;;252.70;57.37;;;;;;;;;;5006676;28;20177;-54
2022/11/16 12:11:45;;;;;;;57.80;16.87;;;;;;;;;;5006166;28;20283;-53
2022/11/16 12:14:24;;;;;;;251.40;56.93;;;;;;;;;;5006490;28;20274;-53
2022/11/16 12:17:04;;;;;;;289.93;66.27;;;;;;;;;;5004937;28;20259;-53
2022/11/16 12:19:38;;;;;;;34.57;11.23;;;;;;;;;;5007359;28;20224;-53
2022/11/16 12:22:04;;;;;;;41.53;13.07;;;;;;;;;;5003826;28;20938;-53
2022/11/16 12:24:45;;;;;;;318.40;62.87;;;;;;;;;;5006564;28;20358;-53
2022/11/16 12:27:25;;;;;;;256.93;45.87;;;;;;;;;;5006984;28;20196;-53
2022/11/16 12:30:02;;;;;;;94.43;23.13;;;;;;;;;;4988580;28;20307;-53
2022/11/16 12:32:31;;;;;;;57.10;16.37;;;;;;;;;;5006248;28;20256;-53
2022/11/16 12:35:02;;;;;;;58.83;16.83;;;;;;;;;;5008878;28;20208;-53
2022/11/16 12:37:48;;;;;;;46.83;14.50;;;;;;;;;;5007758;28;20303;-53
2022/11/16 12:40:14;;;;;;;298.57;60.30;;;;;;;;;;5006315;28;20375;-53
2022/11/16 12:42:45;;;;;;;261.60;53.17;;;;;;;;;;5005655;28;20588;-53
2022/11/16 12:45:17;;;;;;;178.43;36.30;;;;;;;;;;5007419;28;20280;-53
2022/11/16 12:47:43;;;;;;;334.70;65.43;;;;;;;;;;5006648;28;20286;-53
2022/11/16 12:50:29;;;;;;;307.17;59.60;;;;;;;;;;5005459;28;20217;-53
2022/11/16 12:53:09;;;;;;;61.37;17.83;;;;;;;;;;5001762;28;20566;-53
2022/11/16 12:55:41;;;;;;;40.30;12.57;;;;;;;;;;5006495;28;20208;-53
2022/11/16 12:58:19;;;;;;;316.60;59.77;;;;;;;;;;5005569;28;20232;-53
2022/11/16 13:00:55;;;;;;;194.10;40.77;;;;;;;;;;5005554;28;20239;-53
2022/11/16 13:03:59;;;;;;;241.70;52.03;;;;;;;;;;5005081;28;20272;-53
2022/11/16 13:06:48;;;;;;;263.77;53.43;;;;;;;;;;4924462;29;20194;-53
2022/11/16 13:09:16;;;;;;;63.20;17.07;;;;;;;;;;4925531;29;20179;-53
2022/11/16 13:11:45;;;;;;;35.83;10.60;;;;;;;;;;4977675;28;20271;-53
2022/11/16 13:14:15;;;;;;;53.67;14.97;;;;;;;;;;5006228;28;20713;-53
2022/11/16 13:16:41;;;;;;;311.33;60.47;;;;;;;;;;5006949;28;20755;-54
2022/11/16 13:19:09;;;;;;;300.67;56.93;;;;;;;;;;5005333;28;20208;-54
2022/11/16 13:21:35;;;;;;;154.50;32.73;;;;;;;;;;5006502;28;20936;-54
2022/11/16 13:24:07;;;;;;;236.73;44.83;;;;;;;;;;5005872;28;20259;-54
2022/11/16 13:26:33;;;;;;;140.23;30.57;;;;;;;;;;5005875;28;20303;-53
2022/11/16 13:28:59;;;;;;;294.70;58.33;;;;;;;;;;5008111;28;20808;-53
2022/11/16 13:31:42;;;;;;;191.20;40.27;;;;;;;;;;5007466;28;20693;-53
2022/11/16 13:34:17;;;;;;;55.43;15.13;;;;;;;;;;4990569;28;20266;-52
2022/11/16 13:36:44;;;;;;;164.53;32.33;;;;;;;;;;5006816;28;20216;-53
2022/11/16 13:39:11;;;;;;;314.80;59.13;;;;;;;;;;5006908;28;20519;-54
2022/11/16 13:41:38;;;;;;;110.87;23.23;;;;;;;;;;5006409;28;20256;-53
2022/11/16 13:44:10;;;;;;;312.47;60.57;;;;;;;;;;5005886;28;20557;-54
2022/11/16 13:46:45;;;;;;;120.60;25.67;;;;;;;;;;5006973;28;20311;-53
2022/11/16 13:49:23;;;;;;;52.93;14.17;;;;;;;;;;5007145;28;20355;-53
2022/11/16 13:51:53;;;;;;;68.90;17.57;;;;;;;;;;5006655;28;20761;-53
2022/11/16 13:54:30;;;;;;;250.80;47.97;;;;;;;;;;5007258;28;20574;-53
2022/11/16 13:56:56;;;;;;;172.37;32.87;;;;;;;;;;5006619;28;21064;-53
2022/11/16 13:59:23;;;;;;;291.83;54.20;;;;;;;;;;5005621;28;20585;-52
2022/11/16 14:01:54;;;;;;;168.97;33.20;;;;;;;;;;5005823;28;20217;-52
2022/11/16 14:04:40;;;;;;;208.90;40.67;;;;;;;;;;5006056;28;20213;-53
2022/11/16 14:07:26;;;;;;;186.73;36.37;;;;;;;;;;5006365;28;20228;-53
2022/11/16 14:09:52;;;;;;;179.17;36.83;;;;;;;;;;5006162;28;20232;-52
2022/11/16 14:12:37;;;;;;;134.33;25.57;;;;;;;;;;5007087;28;20217;-52
2022/11/16 14:15:16;;;;;;;284.23;57.80;;;;;;;;;;5005759;28;20493;-53
2022/11/16 14:17:49;;;;;;;169.27;33.93;;;;;;;;;;5005402;28;20584;-53
2022/11/16 14:20:23;;;;;;;197.90;37.43;;;;;;;;;;5005439;28;20213;-53
2022/11/16 14:22:52;;;;;;;193.20;36.50;;;;;;;;;;5005565;28;20239;-52
2022/11/16 14:25:25;;;;;;;256.70;49.50;;;;;;;;;;5005216;28;20213;-53
2022/11/16 14:28:10;;;;;;;248.90;51.07;;;;;;;;;;5006215;28;20208;-53
2022/11/16 14:30:51;;;;;;;70.80;17.87;;;;;;;;;;5006861;28;20665;-53
2022/11/16 14:33:25;;;;;;;183.07;34.40;;;;;;;;;;5005062;28;20196;-53
2022/11/16 14:35:52;;;;;;;182.37;35.47;;;;;;;;;;5005758;28;20549;-53
2022/11/16 14:38:37;;;;;;;200.87;38.23;;;;;;;;;;5005189;28;20219;-53
2022/11/16 14:41:10;;;;;;;211.03;38.53;;;;;;;;;;5005345;28;20221;-53
2022/11/16 14:43:42;;;;;;;188.57;33.73;;;;;;;;;;5005025;28;20235;-53
2022/11/16 14:46:15;;;;;;;147.87;28.37;;;;;;;;;;5005733;28;20244;-53
2022/11/16 14:48:43;;;;;;;64.60;15.97;;;;;;;;;;5006059;28;20701;-53
2022/11/16 14:51:12;;;;;;;133.77;25.53;;;;;;;;;;5005958;28;20207;-53
2022/11/16 14:53:45;;;;;;;188.80;34.17;;;;;;;;;;5005125;28;20682;-53
2022/11/16 14:56:13;;;;;;;186.70;34.83;;;;;;;;;;5004837;28;20216;-53